Notice: Undefined index: station in /home3/dimtiris/public_html/webApp/metar/index.php on line 4

Metar

Weather conditions for all airports of the world. Just type the ICAO code of an airport.

LGAV 291420Z 11008KT 070V150 9999 SCT030 SCT070 28/17 Q1011 NOSIG

STATION LGAV
OBSERVED Wed Jun 29, 08:20 MDT
NOW Wed Jun 29, 08:34 MDT
AGE 14 min ago
WIND ESE at 9 mph
VISIBILITY 16 miles
CONDITIONS
CLOUDS scattered clouds
TEMP 82°F (28°C)
DEWPT 63°F (17°C)
HUMIDITY 51%
HEAT INDEX 83°F (28°C)
BAROMETER 1011 hPa (29.85 in Hg)

Get weather info from other station:

Some ICAO codes to try: